Time;durP1;ratioP1;P1;durP2;ratioP2;P2;SDS_P1;SDS_P2;PMS_P1;PMS_P2;Temp;Humidity;BMP_temperature;BMP_pressure;BME280_temperature;BME280_humidity;BME280_pressure;Samples;Min_cycle;Max_cycle;Signal;HPM_P1;HPM_P2
2022/06/06 00:01:46;;;;;;;56.30;17.58;;;15.20;99.90;;;;;;5016021;28;20046;-84
2022/06/06 00:04:12;;;;;;;58.15;17.33;;;15.20;99.90;;;;;;5017243;28;20050;-84
2022/06/06 00:06:39;;;;;;;50.88;17.00;;;15.10;99.90;;;;;;5016063;28;20049;-85
2022/06/06 00:09:06;;;;;;;50.88;16.88;;;15.10;99.90;;;;;;5015951;28;20100;-85
2022/06/06 00:11:34;;;;;;;47.72;15.43;;;15.10;99.90;;;;;;5016957;28;20531;-85
2022/06/06 00:14:00;;;;;;;40.00;15.32;;;15.10;99.90;;;;;;5017108;28;20046;-85
2022/06/06 00:16:29;;;;;;;44.88;17.05;;;15.10;99.90;;;;;;5017021;28;20437;-85
2022/06/06 00:18:55;;;;;;;40.17;15.60;;;15.10;99.90;;;;;;5015569;28;20042;-85
2022/06/06 00:21:20;;;;;;;55.25;18.63;;;15.10;99.90;;;;;;5016009;28;20073;-85
2022/06/06 00:23:46;;;;;;;53.53;18.30;;;15.10;99.90;;;;;;5015644;28;20050;-85
2022/06/06 00:26:14;;;;;;;57.70;18.00;;;15.00;99.90;;;;;;5015520;28;20038;-85
2022/06/06 00:28:46;;;;;;;47.97;16.40;;;15.00;99.90;;;;;;5016560;28;20061;-84
2022/06/06 00:36:43;;;;;;;52.67;15.43;;;15.00;99.90;;;;;;5016758;28;20049;-84
2022/06/06 00:39:11;;;;;;;41.40;13.73;;;15.10;99.90;;;;;;5015590;28;20045;-85
2022/06/06 00:41:39;;;;;;;45.95;14.48;;;15.00;99.90;;;;;;5016683;28;20053;-85
2022/06/06 00:44:22;;;;;;;54.40;14.73;;;15.00;99.90;;;;;;5015824;28;20057;-85
2022/06/06 00:46:55;;;;;;;50.78;14.20;;;15.00;99.90;;;;;;5016578;28;20131;-85
2022/06/06 00:49:34;;;;;;;44.05;15.73;;;15.00;99.90;;;;;;5016547;28;20051;-85
2022/06/06 00:52:01;;;;;;;51.03;16.90;;;15.00;99.90;;;;;;5015144;28;20125;-84
2022/06/06 00:54:28;;;;;;;49.78;15.30;;;14.90;99.90;;;;;;5016333;28;20053;-85
2022/06/06 00:56:59;;;;;;;47.03;13.93;;;14.90;99.90;;;;;;5016384;28;20375;-85
2022/06/06 00:59:29;;;;;;;47.80;14.27;;;14.90;99.90;;;;;;5015157;28;20163;-84
2022/06/06 01:01:56;;;;;;;41.40;14.25;;;14.90;99.90;;;;;;5016453;28;20121;-85
2022/06/06 01:04:25;;;;;;;38.30;13.43;;;14.80;99.90;;;;;;5014832;28;20054;-84
2022/06/06 01:06:52;;;;;;;45.55;15.52;;;14.80;99.90;;;;;;5015121;28;20124;-84
2022/06/06 01:09:22;;;;;;;37.53;13.18;;;14.80;99.90;;;;;;5016094;28;20131;-84
2022/06/06 01:11:59;;;;;;;35.03;13.00;;;14.70;99.90;;;;;;5016123;28;20156;-84
2022/06/06 01:14:28;;;;;;;42.40;13.70;;;14.70;99.90;;;;;;5015840;28;20133;-84
2022/06/06 01:17:00;;;;;;;39.20;13.63;;;14.70;99.90;;;;;;5014623;28;20237;-84
2022/06/06 01:19:51;;;;;;;43.67;13.07;;;14.70;99.90;;;;;;5014974;28;20128;-84
2022/06/06 01:22:42;;;;;;;53.42;16.23;;;14.70;99.90;;;;;;5015892;28;20133;-84
2022/06/06 01:25:45;;;;;;;30.75;12.07;;;14.60;99.90;;;;;;5014526;28;20137;-84
2022/06/06 01:28:42;;;;;;;36.80;11.57;;;14.60;99.90;;;;;;5014339;28;20053;-83
2022/06/06 01:31:17;;;;;;;43.33;12.32;;;14.60;99.90;;;;;;5014411;28;20285;-83
2022/06/06 01:33:53;;;;;;;49.65;13.57;;;14.50;99.90;;;;;;5015706;28;20045;-84
2022/06/06 01:36:19;;;;;;;46.45;13.13;;;14.50;99.90;;;;;;5014774;28;20060;-84
2022/06/06 01:38:46;;;;;;;41.22;13.43;;;14.50;99.90;;;;;;5015300;28;20045;-84
2022/06/06 01:41:25;;;;;;;42.55;13.02;;;14.50;99.90;;;;;;5014346;28;20057;-84
2022/06/06 01:44:13;;;;;;;43.03;13.02;;;14.50;99.90;;;;;;5014171;28;20078;-84
2022/06/06 01:46:38;;;;;;;42.03;11.88;;;14.50;99.90;;;;;;5015090;28;20057;-84
2022/06/06 01:49:09;;;;;;;45.67;13.35;;;14.40;99.90;;;;;;5015385;28;20041;-84
2022/06/06 01:51:35;;;;;;;40.42;11.20;;;14.50;99.90;;;;;;5014198;28;20437;-84
2022/06/06 01:54:01;;;;;;;40.83;12.57;;;14.40;99.90;;;;;;5013823;28;20042;-84
2022/06/06 01:56:33;;;;;;;46.67;11.73;;;14.40;99.90;;;;;;5015381;28;20493;-84
2022/06/06 01:58:59;;;;;;;47.90;12.38;;;14.40;99.90;;;;;;5015247;28;20052;-84
2022/06/06 02:01:25;;;;;;;41.03;12.38;;;14.40;99.90;;;;;;5013891;28;20136;-84
2022/06/06 02:03:52;;;;;;;31.80;9.82;;;14.40;99.90;;;;;;5013803;28;20077;-83
2022/06/06 02:06:17;;;;;;;37.78;11.25;;;14.20;99.90;;;;;;5013676;28;20104;-80
2022/06/06 02:08:44;;;;;;;33.72;11.32;;;14.20;99.90;;;;;;5014064;28;20045;-83
2022/06/06 02:11:10;;;;;;;28.80;9.75;;;14.20;99.90;;;;;;5015136;28;20054;-82
2022/06/06 02:13:37;;;;;;;34.92;11.73;;;14.20;99.90;;;;;;5013776;28;20046;-82
2022/06/06 02:16:03;;;;;;;31.85;11.43;;;14.20;99.90;;;;;;5014850;28;20046;-83
2022/06/06 02:18:29;;;;;;;32.35;11.10;;;14.10;99.90;;;;;;5014620;28;20065;-83
2022/06/06 02:20:55;;;;;;;25.50;9.40;;;14.00;99.90;;;;;;5013362;28;20045;-81
2022/06/06 02:23:22;;;;;;;39.50;11.15;;;14.00;99.90;;;;;;5014586;28;20397;-82
2022/06/06 02:25:48;;;;;;;27.85;11.73;;;14.00;99.90;;;;;;5014613;28;20473;-81
2022/06/06 02:28:15;;;;;;;43.63;12.18;;;14.00;99.90;;;;;;5014494;28;20091;-82
2022/06/06 02:30:41;;;;;;;28.60;10.50;;;13.90;99.90;;;;;;5013405;28;20445;-82
2022/06/06 02:33:07;;;;;;;32.33;11.88;;;13.90;99.90;;;;;;5014490;28;20092;-83
2022/06/06 02:35:37;;;;;;;29.92;11.90;;;13.90;99.90;;;;;;5013207;28;20038;-82
2022/06/06 02:38:03;;;;;;;44.25;12.32;;;13.90;99.90;;;;;;5013429;28;20034;-82
2022/06/06 02:40:33;;;;;;;35.92;12.27;;;13.80;99.90;;;;;;5013144;28;20063;-82
2022/06/06 02:42:59;;;;;;;36.20;12.85;;;13.80;99.90;;;;;;5013553;28;20050;-82
2022/06/06 02:45:25;;;;;;;40.22;12.02;;;13.90;99.90;;;;;;5013316;28;20042;-83
2022/06/06 02:47:55;;;;;;;35.13;11.43;;;13.80;99.90;;;;;;5014189;28;20490;-83
2022/06/06 02:50:23;;;;;;;33.72;12.45;;;13.80;99.90;;;;;;5014177;28;20045;-83
2022/06/06 02:52:49;;;;;;;41.13;12.90;;;13.80;99.90;;;;;;5014235;28;20054;-83
2022/06/06 02:55:15;;;;;;;26.70;10.85;;;13.80;99.90;;;;;;5014255;28;20096;-83
2022/06/06 02:57:45;;;;;;;33.85;12.63;;;13.80;99.90;;;;;;5014212;28;20088;-84
2022/06/06 03:00:14;;;;;;;36.30;12.07;;;13.80;99.90;;;;;;5014166;28;20141;-83
2022/06/06 03:02:39;;;;;;;49.25;13.45;;;13.70;99.90;;;;;;5013932;28;20477;-84
2022/06/06 03:05:07;;;;;;;40.88;10.85;;;13.70;99.90;;;;;;5012721;28;20520;-84
2022/06/06 03:07:45;;;;;;;39.03;12.63;;;13.70;99.90;;;;;;5013629;28;20065;-83
2022/06/06 03:10:49;;;;;;;42.63;14.18;;;13.70;99.90;;;;;;5014042;28;20053;-84
2022/06/06 03:13:43;;;;;;;33.92;12.02;;;13.70;99.90;;;;;;5009746;28;20058;-83
2022/06/06 03:22:31;;;;;;;38.83;13.63;;;13.70;99.90;;;;;;5013971;28;20064;-83
2022/06/06 03:25:10;;;;;;;42.42;12.85;;;13.70;99.90;;;;;;5013936;28;20048;-83
2022/06/06 03:27:51;;;;;;;57.17;14.10;;;13.70;99.90;;;;;;5013777;28;20137;-83
2022/06/06 03:30:22;;;;;;;42.00;13.50;;;13.70;99.90;;;;;;5011994;28;20058;-83
2022/06/06 03:33:43;;;;;;;44.72;13.90;;;13.70;99.90;;;;;;5012007;28;20042;-83
2022/06/06 03:36:28;;;;;;;34.40;12.85;;;13.70;99.90;;;;;;4953521;28;20142;-83
2022/06/06 03:39:06;;;;;;;38.08;13.90;;;13.70;99.90;;;;;;5012419;28;20038;-83
2022/06/06 03:41:57;;;;;;;36.25;15.00;;;13.70;99.90;;;;;;5012403;28;20052;-83
2022/06/06 03:44:49;;;;;;;39.50;13.73;;;13.80;99.90;;;;;;5013450;28;20448;-85
2022/06/06 03:47:33;;;;;;;43.63;14.00;;;13.80;99.90;;;;;;5013617;28;20072;-84
2022/06/06 03:50:17;;;;;;;41.17;14.02;;;13.80;99.90;;;;;;5013251;28;20564;-84
2022/06/06 03:52:52;;;;;;;41.28;15.20;;;13.70;99.90;;;;;;5012063;28;20050;-84
2022/06/06 03:55:29;;;;;;;40.33;16.13;;;13.80;99.90;;;;;;5012138;28;20560;-84
2022/06/06 03:57:56;;;;;;;48.08;16.15;;;13.80;99.90;;;;;;5012005;28;20444;-84
2022/06/06 04:00:23;;;;;;;49.78;16.50;;;13.80;99.90;;;;;;5012259;28;20058;-83
2022/06/06 04:02:49;;;;;;;38.72;14.65;;;13.80;99.90;;;;;;5012219;28;20592;-83
2022/06/06 04:05:22;;;;;;;39.63;14.70;;;13.80;99.90;;;;;;5013278;28;20081;-83
2022/06/06 04:07:48;;;;;;;35.38;14.25;;;13.80;99.90;;;;;;5012239;28;20560;-83
2022/06/06 04:10:16;;;;;;;36.92;15.07;;;13.80;99.90;;;;;;5013174;28;20083;-83
2022/06/06 04:13:20;;;;;;;33.00;14.88;;;13.80;99.90;;;;;;5012022;28;20481;-83
2022/06/06 04:16:02;;;;;;;36.85;14.85;;;13.80;99.90;;;;;;5002259;28;20081;-83
2022/06/06 04:18:42;;;;;;;38.10;14.60;;;13.70;99.90;;;;;;5014359;28;20045;-82
2022/06/06 04:21:37;;;;;;;43.50;15.45;;;13.80;99.90;;;;;;5016878;28;20046;-82
2022/06/06 04:24:25;;;;;;;36.90;15.15;;;13.70;99.90;;;;;;5015694;28;20485;-82
2022/06/06 04:27:14;;;;;;;43.67;15.68;;;13.70;99.90;;;;;;5015709;28;20041;-82
2022/06/06 04:30:06;;;;;;;33.92;14.60;;;13.70;99.90;;;;;;5015129;28;20065;-82
2022/06/06 04:32:51;;;;;;;44.97;15.33;;;13.70;99.90;;;;;;5016734;28;20042;-82
2022/06/06 04:35:19;;;;;;;43.90;16.10;;;13.70;99.90;;;;;;5016776;28;20292;-82
2022/06/06 04:37:53;;;;;;;53.45;16.58;;;13.70;99.90;;;;;;5016621;28;20046;-82
2022/06/06 04:40:54;;;;;;;40.85;17.98;;;13.70;99.90;;;;;;5016432;28;20493;-82
2022/06/06 04:43:39;;;;;;;46.30;16.60;;;13.70;99.90;;;;;;5015149;28;20046;-82
2022/06/06 04:46:14;;;;;;;52.92;17.10;;;13.80;99.90;;;;;;5015312;28;20046;-82
2022/06/06 04:48:40;;;;;;;46.33;18.90;;;13.80;99.90;;;;;;5015276;28;20053;-83
2022/06/06 04:51:07;;;;;;;51.33;18.75;;;13.70;99.90;;;;;;5016124;28;20072;-82
2022/06/06 04:53:38;;;;;;;49.63;19.58;;;13.70;99.90;;;;;;5014744;28;20485;-82
2022/06/06 04:56:04;;;;;;;47.60;20.67;;;13.70;99.90;;;;;;5014844;28;20049;-84
2022/06/06 04:58:34;;;;;;;47.17;19.73;;;13.70;99.90;;;;;;5016085;28;20074;-82
2022/06/06 05:01:02;;;;;;;50.03;18.65;;;13.70;99.90;;;;;;5015936;28;20383;-82
2022/06/06 05:03:27;;;;;;;54.45;19.90;;;13.60;99.90;;;;;;5014764;28;20049;-83
2022/06/06 05:05:56;;;;;;;47.08;18.00;;;13.70;99.90;;;;;;5014750;28;20049;-83
2022/06/06 05:08:50;;;;;;;36.78;14.63;;;13.70;99.90;;;;;;5016079;28;20045;-84
2022/06/06 05:11:21;;;;;;;33.35;14.48;;;13.70;99.90;;;;;;5014522;28;20038;-84
2022/06/06 05:14:05;;;;;;;38.28;15.63;;;13.60;99.90;;;;;;5014561;28;20132;-83
2022/06/06 05:17:08;;;;;;;32.22;15.27;;;13.50;99.90;;;;;;5014650;28;20129;-83
2022/06/06 05:19:49;;;;;;;33.20;12.35;;;13.50;99.90;;;;;;5016007;28;20050;-84
2022/06/06 05:22:48;;;;;;;29.23;11.85;;;13.50;99.90;;;;;;5014684;28;20046;-84
2022/06/06 05:25:20;;;;;;;32.15;12.10;;;13.50;99.90;;;;;;5014429;28;20099;-84
2022/06/06 05:27:51;;;;;;;29.00;11.73;;;13.50;99.90;;;;;;5014268;28;20050;-86
2022/06/06 05:30:24;;;;;;;34.85;14.18;;;13.50;99.90;;;;;;5013678;28;20073;-83
2022/06/06 05:33:03;;;;;;;40.92;14.18;;;13.60;99.90;;;;;;5015578;28;20057;-82
2022/06/06 05:35:40;;;;;;;37.55;14.77;;;13.60;99.90;;;;;;5015673;28;20163;-83
2022/06/06 05:38:18;;;;;;;34.72;14.07;;;13.70;99.90;;;;;;5015361;28;20462;-83
2022/06/06 05:41:14;;;;;;;41.78;13.90;;;13.70;99.90;;;;;;5015344;28;20052;-83
2022/06/06 05:44:03;;;;;;;40.35;14.85;;;13.70;99.90;;;;;;5014003;28;20060;-83
2022/06/06 05:46:59;;;;;;;46.85;15.13;;;13.80;99.90;;;;;;5015307;28;20095;-83
2022/06/06 05:49:44;;;;;;;43.85;15.13;;;13.70;99.90;;;;;;5014176;28;20050;-83
2022/06/06 05:52:37;;;;;;;36.33;14.60;;;13.70;99.90;;;;;;5014048;28;20058;-83
2022/06/06 05:55:31;;;;;;;33.60;14.23;;;13.70;99.90;;;;;;5013838;28;20046;-83
2022/06/06 05:58:22;;;;;;;39.63;14.05;;;13.70;99.90;;;;;;5013941;28;20497;-83
2022/06/06 06:00:56;;;;;;;33.30;14.25;;;13.70;99.90;;;;;;5015039;28;20532;-81
2022/06/06 06:03:50;;;;;;;34.05;13.07;;;13.70;99.90;;;;;;5015051;28;20050;-81
2022/06/06 06:06:20;;;;;;;29.73;13.35;;;13.60;99.90;;;;;;5015132;28;20045;-82
2022/06/06 06:09:10;;;;;;;25.17;11.23;;;13.60;99.90;;;;;;5014068;28;20093;-81
2022/06/06 06:12:01;;;;;;;33.95;12.48;;;13.60;99.90;;;;;;5013807;28;20133;-81
2022/06/06 06:14:35;;;;;;;22.38;10.60;;;13.50;99.90;;;;;;5013422;28;20096;-84
2022/06/06 06:17:03;;;;;;;25.98;11.88;;;13.50;99.90;;;;;;5013635;28;20053;-85
2022/06/06 06:19:49;;;;;;;27.25;11.60;;;13.50;99.90;;;;;;5014621;28;20084;-84
2022/06/06 06:22:17;;;;;;;23.98;9.50;;;13.50;99.90;;;;;;5013612;28;20054;-86
2022/06/06 06:24:43;;;;;;;10.38;4.70;;;13.50;99.90;;;;;;5013501;28;20103;-86
2022/06/06 06:27:10;;;;;;;15.07;5.47;;;13.60;99.90;;;;;;5014453;28;20046;-86
2022/06/06 06:29:36;;;;;;;14.82;6.07;;;13.60;99.90;;;;;;5012963;28;20054;-84
2022/06/06 06:32:09;;;;;;;16.48;6.03;;;13.60;99.90;;;;;;5015048;28;20054;-84
2022/06/06 06:35:26;;;;;;;17.77;6.82;;;13.50;99.90;;;;;;5014257;28;20046;-84
2022/06/06 06:38:10;;;;;;;19.63;7.53;;;13.60;99.90;;;;;;4980723;28;20062;-85
2022/06/06 06:40:53;;;;;;;19.98;6.03;;;13.50;99.90;;;;;;5012371;28;20149;-88
2022/06/06 06:43:53;;;;;;;19.60;6.68;;;13.50;99.90;;;;;;5013024;28;20050;-86
2022/06/06 06:46:51;;;;;;;24.83;6.43;;;13.50;99.90;;;;;;5014057;28;20128;-88
2022/06/06 06:49:39;;;;;;;22.75;7.85;;;13.50;99.90;;;;;;5008590;28;20087;-86
2022/06/06 06:52:23;;;;;;;18.35;6.65;;;13.50;99.90;;;;;;5007774;28;20076;-85
2022/06/06 06:55:19;;;;;;;18.02;6.00;;;13.60;99.90;;;;;;5004708;28;20195;-86
2022/06/06 06:57:50;;;;;;;12.50;4.82;;;13.60;99.90;;;;;;5012962;28;20103;-84
2022/06/06 07:00:19;;;;;;;16.05;5.22;;;13.60;99.90;;;;;;5012531;28;20144;-84
2022/06/06 07:09:05;;;;;;;25.80;7.93;;;13.60;99.90;;;;;;5012406;28;20131;-87
2022/06/06 07:11:36;;;;;;;20.20;7.47;;;13.60;99.90;;;;;;5013932;28;20054;-85
2022/06/06 07:14:23;;;;;;;23.65;8.98;;;13.60;99.90;;;;;;5013314;28;20401;-86
2022/06/06 07:16:55;;;;;;;21.13;7.50;;;13.50;99.90;;;;;;5012567;28;20061;-86
2022/06/06 07:19:31;;;;;;;15.33;6.73;;;13.60;99.90;;;;;;5012514;28;20069;-85
2022/06/06 07:22:00;;;;;;;15.77;5.47;;;13.50;99.90;;;;;;5013519;28;20285;-85
2022/06/06 07:24:28;;;;;;;12.15;5.00;;;13.50;99.90;;;;;;5013713;28;20104;-88
2022/06/06 07:26:56;;;;;;;12.57;4.50;;;13.50;99.90;;;;;;5013874;28;20034;-85
2022/06/06 07:29:22;;;;;;;10.00;4.50;;;13.60;99.90;;;;;;5013175;28;20516;-80
2022/06/06 07:31:48;;;;;;;13.40;4.95;;;13.50;99.90;;;;;;5013567;28;20034;-83
2022/06/06 07:34:33;;;;;;;11.48;5.18;;;13.50;99.90;;;;;;5013513;28;20042;-87
2022/06/06 07:37:15;;;;;;;14.10;6.63;;;13.60;99.90;;;;;;5011375;28;20088;-83
2022/06/06 07:39:59;;;;;;;12.63;5.32;;;13.60;99.90;;;;;;5012207;28;20393;-84
2022/06/06 07:42:31;;;;;;;22.65;7.55;;;13.60;99.90;;;;;;5013480;28;20042;-83
2022/06/06 07:45:22;;;;;;;12.32;4.75;;;13.70;99.90;;;;;;5011934;28;20126;-84
2022/06/06 07:48:10;;;;;;;14.25;5.30;;;13.80;99.90;;;;;;5005346;28;20057;-83
2022/06/06 07:50:41;;;;;;;14.93;5.93;;;13.80;99.90;;;;;;5011989;28;20092;-81
2022/06/06 07:53:26;;;;;;;13.90;5.30;;;13.90;99.90;;;;;;5015524;28;20042;-82
2022/06/06 07:55:58;;;;;;;18.75;5.22;;;14.00;99.90;;;;;;5015744;28;20046;-81
2022/06/06 07:58:31;;;;;;;16.50;5.88;;;14.00;99.90;;;;;;5015902;28;20056;-82
2022/06/06 08:01:10;;;;;;;14.50;4.78;;;14.10;99.90;;;;;;5017057;28;20046;-82
2022/06/06 08:04:14;;;;;;;14.68;4.72;;;14.10;99.90;;;;;;5015786;28;20046;-84
2022/06/06 08:07:08;;;;;;;14.13;4.45;;;14.10;99.90;;;;;;5004681;28;20061;-83
2022/06/06 08:09:48;;;;;;;17.85;5.53;;;14.10;99.90;;;;;;5014395;28;20104;-84
2022/06/06 08:12:40;;;;;;;12.30;4.90;;;14.20;99.90;;;;;;5015826;28;20501;-83
2022/06/06 08:15:31;;;;;;;13.27;5.67;;;14.30;99.90;;;;;;5015392;28;20116;-82
2022/06/06 08:18:34;;;;;;;15.05;4.07;;;14.40;99.90;;;;;;5014850;28;20077;-81
2022/06/06 08:21:25;;;;;;;8.88;3.50;;;14.50;99.90;;;;;;4995946;28;20050;-82
2022/06/06 08:23:58;;;;;;;12.13;4.40;;;14.60;99.90;;;;;;4996022;28;20116;-84
2022/06/06 08:26:25;;;;;;;10.65;4.13;;;14.70;99.90;;;;;;4995643;28;20053;-84
2022/06/06 08:28:52;;;;;;;14.32;5.43;;;14.70;99.90;;;;;;4995258;28;20522;-84
2022/06/06 08:31:19;;;;;;;12.00;4.80;;;14.80;99.90;;;;;;4997094;28;20124;-83
2022/06/06 08:33:46;;;;;;;10.25;4.40;;;15.00;99.90;;;;;;4995424;28;20044;-83
2022/06/06 08:36:42;;;;;;;13.98;5.05;;;15.20;99.90;;;;;;5004318;28;20125;-83
2022/06/06 08:39:17;;;;;;;9.73;3.50;;;15.40;99.90;;;;;;5008629;28;20037;-82
2022/06/06 08:42:02;;;;;;;10.32;3.75;;;15.80;99.90;;;;;;5004705;28;20108;-82
2022/06/06 08:44:51;;;;;;;10.95;3.28;;;16.00;99.90;;;;;;5006275;28;20046;-84
2022/06/06 08:47:51;;;;;;;10.95;3.80;;;16.20;99.90;;;;;;5006539;28;20037;-83
2022/06/06 08:50:46;;;;;;;10.32;3.53;;;16.00;99.90;;;;;;5004854;28;20055;-84
2022/06/06 08:53:36;;;;;;;8.80;3.22;;;16.10;99.90;;;;;;5003349;28;20066;-83
2022/06/06 08:56:10;;;;;;;9.63;3.85;;;16.10;99.90;;;;;;5004737;28;20383;-82
2022/06/06 08:58:51;;;;;;;11.75;4.45;;;16.00;99.90;;;;;;5004305;28;20078;-83
2022/06/06 09:01:44;;;;;;;21.65;8.07;;;15.80;99.90;;;;;;5004320;28;20092;-82
2022/06/06 09:04:39;;;;;;;14.57;5.60;;;15.70;99.90;;;;;;5003276;28;20081;-82
2022/06/06 09:07:20;;;;;;;10.57;4.55;;;15.70;99.90;;;;;;5004788;28;20509;-82
2022/06/06 09:10:14;;;;;;;10.18;4.60;;;15.70;99.90;;;;;;5007397;28;20046;-82
2022/06/06 09:13:08;;;;;;;;;;;15.60;99.90;;;;;;5004788;28;20046;-82
2022/06/06 09:16:32;;;;;;;12.50;4.90;;;15.60;99.90;;;;;;5003551;28;19922;-82
2022/06/06 09:19:28;;;;;;;14.15;6.35;;;15.50;99.90;;;;;;4952684;28;20050;-82
2022/06/06 09:22:26;;;;;;;15.77;5.05;;;15.50;99.90;;;;;;4949608;28;20047;-82
2022/06/06 09:25:27;;;;;;;13.75;5.90;;;15.50;99.90;;;;;;4998703;28;20141;-83
2022/06/06 09:28:10;;;;;;;14.05;5.55;;;15.60;99.90;;;;;;4963467;28;20654;-82
2022/06/06 09:31:07;;;;;;;18.30;5.93;;;15.50;99.90;;;;;;4999942;28;20050;-82
2022/06/06 09:34:05;;;;;;;13.35;6.13;;;15.50;99.90;;;;;;5005735;28;20046;-82
2022/06/06 09:36:45;;;;;;;11.70;5.43;;;15.40;99.90;;;;;;5004280;28;20093;-84
2022/06/06 09:39:36;;;;;;;24.83;6.32;;;15.40;99.90;;;;;;5009379;28;20366;-83
2022/06/06 09:42:34;;;;;;;16.13;6.35;;;15.30;99.90;;;;;;5004964;28;20048;-82
2022/06/06 09:45:19;;;;;;;14.82;6.65;;;15.30;99.90;;;;;;5006463;28;20038;-82
2022/06/06 09:48:22;;;;;;;17.98;6.53;;;15.30;99.90;;;;;;5008245;28;20038;-83
2022/06/06 09:50:54;;;;;;;;;;;15.30;99.90;;;;;;5007808;28;20053;-85
2022/06/06 09:53:41;;;;;;;22.60;9.52;;;15.20;99.90;;;;;;5014047;28;19929;-84
2022/06/06 09:59:52;;;;;;;21.98;9.43;;;15.10;99.90;;;;;;4995554;28;20046;-84
2022/06/06 10:02:59;;;;;;;17.20;8.60;;;15.10;99.90;;;;;;5003239;28;20060;-84
2022/06/06 10:05:46;;;;;;;25.83;10.93;;;15.10;99.90;;;;;;5014649;28;20057;-84
2022/06/06 10:08:33;;;;;;;26.98;11.07;;;15.00;99.90;;;;;;5014230;28;20046;-85
2022/06/06 10:11:40;;;;;;;26.73;11.27;;;15.10;99.90;;;;;;5013824;28;20132;-85
2022/06/06 10:14:20;;;;;;;12.27;6.15;;;15.10;99.90;;;;;;4991024;28;20409;-84
2022/06/06 10:17:09;;;;;;;8.68;4.70;;;15.00;99.90;;;;;;5012835;28;20042;-85
2022/06/06 10:20:01;;;;;;;9.07;4.18;;;14.80;99.90;;;;;;5013353;28;20058;-85
2022/06/06 10:22:46;;;;;;;8.07;3.72;;;14.70;99.90;;;;;;5012873;28;20516;-89
2022/06/06 10:25:40;;;;;;;17.25;5.63;;;14.60;99.90;;;;;;5015063;28;20042;-88
2022/06/06 10:28:18;;;;;;;14.57;5.75;;;14.60;99.90;;;;;;5013193;28;20053;-84
2022/06/06 10:31:04;;;;;;;23.80;8.18;;;14.50;99.90;;;;;;5014373;28;20261;-82
2022/06/06 10:34:04;;;;;;;20.55;8.45;;;14.60;99.90;;;;;;5011486;28;20451;-84
2022/06/06 10:36:44;;;;;;;17.70;8.23;;;14.50;99.90;;;;;;5006505;28;20478;-84
2022/06/06 10:39:16;;;;;;;23.10;10.60;;;14.60;99.90;;;;;;5012217;28;20037;-82
2022/06/06 10:42:10;;;;;;;26.13;10.68;;;14.60;99.90;;;;;;5012508;28;20478;-83
2022/06/06 10:44:57;;;;;;;26.10;10.77;;;14.70;99.90;;;;;;5006182;28;20132;-84
2022/06/06 10:47:42;;;;;;;23.63;9.32;;;14.90;99.90;;;;;;4998998;28;20038;-83
2022/06/06 10:50:16;;;;;;;20.50;8.13;;;14.90;99.90;;;;;;4993125;28;20262;-84
2022/06/06 10:53:17;;;;;;;22.10;9.75;;;15.00;99.90;;;;;;4994308;28;20096;-86
2022/06/06 10:55:51;;;;;;;17.45;8.18;;;15.10;99.90;;;;;;4994009;28;20042;-89
2022/06/06 10:58:46;;;;;;;13.25;5.50;;;15.00;99.90;;;;;;4994856;28;20053;-83
2022/06/06 11:01:49;;;;;;;13.90;4.60;;;14.90;99.90;;;;;;4993402;28;20134;-84
2022/06/06 11:04:38;;;;;;;11.68;4.30;;;14.70;99.90;;;;;;4994740;28;20046;-85
2022/06/06 11:07:19;;;;;;;15.18;5.95;;;14.60;99.90;;;;;;4992296;28;20046;-84
2022/06/06 11:10:14;;;;;;;22.98;5.53;;;14.50;99.90;;;;;;4993195;28;20082;-82
2022/06/06 11:13:10;;;;;;;18.42;6.30;;;14.40;99.90;;;;;;4994534;28;20042;-85
2022/06/06 11:16:06;;;;;;;16.77;6.80;;;14.20;99.90;;;;;;4994170;28;20081;-84
2022/06/06 11:18:49;;;;;;;14.27;6.47;;;14.20;99.90;;;;;;4987934;28;20109;-85
2022/06/06 11:21:14;;;;;;;;;;;14.20;99.90;;;;;;4993742;28;20050;-87
2022/06/06 11:24:06;;;;;;;24.85;8.25;;;14.30;99.90;;;;;;4995075;28;20292;-92
2022/06/06 11:26:46;;;;;;;22.38;8.80;;;14.20;99.90;;;;;;4992654;28;20046;-91
2022/06/06 11:29:20;;;;;;;19.40;8.43;;;14.10;99.90;;;;;;4994168;28;20081;-86
2022/06/06 11:32:30;;;;;;;31.70;9.52;;;14.00;99.90;;;;;;4993138;28;20487;-86
2022/06/06 11:35:08;;;;;;;24.60;9.48;;;13.90;99.90;;;;;;4992766;28;20493;-86
2022/06/06 11:37:39;;;;;;;23.40;9.77;;;13.90;99.90;;;;;;4993082;28;20042;-86
2022/06/06 11:40:11;;;;;;;20.40;8.98;;;13.90;99.90;;;;;;4994075;28;20094;-86
2022/06/06 11:43:15;;;;;;;21.38;9.63;;;14.00;99.90;;;;;;4992606;28;20557;-84
2022/06/06 11:45:59;;;;;;;21.25;9.40;;;14.00;99.90;;;;;;4956260;28;20066;-85
2022/06/06 11:48:31;;;;;;;24.25;8.88;;;14.10;99.90;;;;;;4992565;28;20050;-85
2022/06/06 11:51:08;;;;;;;24.75;10.00;;;14.10;99.90;;;;;;4994135;28;20089;-84
2022/06/06 11:54:16;;;;;;;19.15;10.18;;;14.20;99.90;;;;;;4993721;28;20484;-84
2022/06/06 11:57:12;;;;;;;19.45;8.40;;;14.10;99.90;;;;;;4965512;28;20058;-84
2022/06/06 12:00:06;;;;;;;18.98;8.90;;;14.10;99.90;;;;;;4993908;28;20117;-84
2022/06/06 12:02:54;;;;;;;15.45;8.15;;;14.10;99.90;;;;;;4992659;28;20478;-84
2022/06/06 12:06:01;;;;;;;29.48;10.30;;;14.20;99.90;;;;;;4993655;28;20046;-85
2022/06/06 12:09:03;;;;;;;24.40;10.07;;;14.20;99.90;;;;;;4936830;29;20062;-86
2022/06/06 12:11:50;;;;;;;21.27;9.88;;;14.20;99.90;;;;;;4937059;29;20059;-85
2022/06/06 12:14:53;;;;;;;23.05;10.10;;;14.10;99.90;;;;;;4984062;28;20074;-85
2022/06/06 12:17:49;;;;;;;24.42;8.82;;;14.10;99.90;;;;;;4992644;28;20054;-85
2022/06/06 12:20:30;;;;;;;17.48;7.60;;;14.10;99.90;;;;;;4993519;28;20395;-85
2022/06/06 12:23:31;;;;;;;18.33;8.48;;;14.20;99.90;;;;;;4992373;28;20038;-84
2022/06/06 12:26:15;;;;;;;19.40;8.27;;;14.20;99.90;;;;;;4994206;28;20061;-85
2022/06/06 12:29:03;;;;;;;19.98;8.27;;;14.30;99.90;;;;;;4992436;28;20054;-84
2022/06/06 12:31:47;;;;;;;18.58;8.88;;;14.20;99.90;;;;;;4993624;28;20138;-85
2022/06/06 12:34:51;;;;;;;20.63;9.98;;;14.20;99.90;;;;;;4992220;28;20054;-86
2022/06/06 12:37:22;;;;;;;19.20;9.48;;;14.30;99.90;;;;;;4983998;28;20498;-85
2022/06/06 12:40:09;;;;;;;19.35;9.15;;;14.20;99.90;;;;;;4993789;28;20038;-85
2022/06/06 12:42:45;;;;;;;24.63;9.15;;;14.20;99.90;;;;;;4995825;28;20058;-87
2022/06/06 12:45:35;;;;;;;21.83;8.52;;;14.10;99.90;;;;;;4995573;28;20501;-85
2022/06/06 12:48:35;;;;;;;17.70;8.35;;;14.20;99.90;;;;;;4995527;28;20043;-84
2022/06/06 12:51:17;;;;;;;22.13;8.10;;;14.10;99.90;;;;;;4995421;28;20501;-84
2022/06/06 12:54:21;;;;;;;19.58;8.20;;;14.10;99.90;;;;;;4995469;28;20390;-84
2022/06/06 12:57:01;;;;;;;17.08;6.75;;;14.10;99.90;;;;;;4995544;28;20051;-84
2022/06/06 12:59:59;;;;;;;15.95;6.00;;;14.10;99.90;;;;;;4995326;28;20042;-81
2022/06/06 13:02:47;;;;;;;15.20;5.68;;;14.20;99.90;;;;;;4992465;28;20522;-78
2022/06/06 13:05:30;;;;;;;12.65;5.55;;;14.20;99.90;;;;;;4995461;28;20046;-81
2022/06/06 13:08:07;;;;;;;13.13;5.50;;;14.20;99.90;;;;;;4995393;28;20052;-81
2022/06/06 13:10:44;;;;;;;12.80;4.95;;;14.10;99.90;;;;;;4995429;28;20054;-81
2022/06/06 13:13:44;;;;;;;14.50;5.20;;;14.20;99.90;;;;;;4995037;28;20054;-80
2022/06/06 13:16:42;;;;;;;11.77;5.00;;;14.10;99.90;;;;;;4995188;28;20061;-80
2022/06/06 13:19:33;;;;;;;11.00;5.60;;;14.10;99.90;;;;;;4992183;28;20054;-80
2022/06/06 13:22:19;;;;;;;14.43;4.90;;;14.00;99.90;;;;;;4995198;28;20406;-80
2022/06/06 13:25:08;;;;;;;14.10;5.50;;;14.00;99.90;;;;;;4994822;28;20050;-80
2022/06/06 13:27:56;;;;;;;17.42;5.90;;;14.10;99.90;;;;;;4994723;28;20438;-80
2022/06/06 13:30:28;;;;;;;14.95;6.05;;;14.20;99.90;;;;;;4994547;28;20054;-80
2022/06/06 13:33:10;;;;;;;12.57;5.60;;;14.30;99.90;;;;;;4995003;28;20077;-80
2022/06/06 13:35:49;;;;;;;12.35;5.85;;;14.30;99.90;;;;;;4994614;28;20050;-80
2022/06/06 13:38:35;;;;;;;14.07;6.72;;;14.30;99.90;;;;;;4994918;28;20050;-80
2022/06/06 13:41:36;;;;;;;15.40;6.38;;;14.40;99.90;;;;;;4994467;28;20057;-80
2022/06/06 13:44:53;;;;;;;18.13;6.75;;;14.30;99.90;;;;;;4988692;28;20058;-80
2022/06/06 13:47:53;;;;;;;12.57;4.75;;;14.30;99.90;;;;;;4972860;28;20137;-81
2022/06/06 13:50:45;;;;;;;10.90;3.50;;;14.20;99.90;;;;;;4994100;28;20046;-81
2022/06/06 13:53:25;;;;;;;11.98;3.38;;;14.10;99.90;;;;;;4994499;28;20046;-81
2022/06/06 13:56:12;;;;;;;8.55;2.45;;;14.20;99.90;;;;;;4994668;28;20050;-81
2022/06/06 13:58:57;;;;;;;5.05;1.63;;;14.10;99.90;;;;;;4994451;28;20110;-81
2022/06/06 14:01:28;;;;;;;7.28;2.10;;;14.00;99.90;;;;;;4994026;28;20044;-81
2022/06/06 14:04:27;;;;;;;5.07;1.65;;;14.00;99.90;;;;;;4994471;28;20060;-81
2022/06/06 14:14:43;;;;;;;9.98;2.10;;;13.80;99.90;;;;;;4884213;29;20103;-81